Terminal Aerodrome Forecast
Issued by NWS

Home | Current Version | Previous Version | Text Only | Print | Product List | Glossary On
Versions: 1 2 3 4 5 6 7 8 9 10 11 12 13 14 15 16 17 18 19 20 21 22 23 24 25
000
FTUS46 KSGX 310857 AAB
TAFSAN
TAF AMD
KSAN 310857Z 3109/0112 VRB04KT P6SM OVC015
     FM311700 18006KT P6SM SCT018 SCT250
     FM312000 22009KT P6SM SKC
     FM010200 VRB04KT P6SM SCT020
     FM010400 VRB04KT P6SM OVC020=

USA.gov is the U.S. government's official web portal to all federal, state and local government web resources and services.